< < Back
Terminal Aerodrome Forecast


Current Version              Previous Versions:   1  2  3  4  5  6  7  8  9  

Terminal Aerodrome Forecast

017
FTUS42 KTAE 262342 CCA
TAFABY
TAF COR
KABY 262342Z 2700/2724 00000KT P6SM -SHRA BKN070
     FM270200 13003KT P6SM FEW025 BKN120
     FM271000 10003KT P6SM BKN015
     FM271700 11004KT P6SM VCTS BKN040CB
      TEMPO 2717/2721 VRB25KT 2SM TSRA OVC035CB=



Latest METAR

572
SAUS70 KWBC 272200 RRC
MTRABY
METAR KABY 272153Z 16013KT 10SM CLR 29/20 A3015 RMK AO2 LTG DSNT W AND
NW SLP206 T02890200


USA.gov is the U.S. government's official web portal to all federal, state and local government web resources and services.